Terminal Aerodrome Forecast
Issued by NWS

Home | Current Version | Previous Version | Text Only | Print | Product List | Glossary On
Versions: 1 2 3 4 5 6 7 8 9 10 11 12 13 14 15 16 17 18 19 20 21
000
FTUS46 KOTX 131730
TAFSFF
TAF
KSFF 131730Z 1318/1418 VRB03KT P6SM OVC010
     FM131900 VRB03KT P6SM BKN012
     FM132300 VRB02KT P6SM SCT012
     FM141100 VRB02KT 1SM BR OVC004=

USA.gov is the U.S. government's official web portal to all federal, state and local government web resources and services.